sensor_id;sensor_type;location;lat;lon;timestamp;P1;durP1;ratioP1;P2;durP2;ratioP2
77217;SDS011;66214;51.302;17.068;2023-02-28T07:16:53;57.20;;;25.20;;
77217;SDS011;66214;51.302;17.068;2023-02-28T07:19:26;71.50;;;31.00;;
77217;SDS011;66214;51.302;17.068;2023-02-28T07:21:54;79.70;;;33.60;;
77217;SDS011;66214;51.302;17.068;2023-02-28T07:24:22;66.40;;;28.80;;
77217;SDS011;66214;51.302;17.068;2023-02-28T07:26:53;55.80;;;25.20;;
77217;SDS011;66214;51.302;17.068;2023-02-28T07:29:21;39.00;;;16.40;;
77217;SDS011;66214;51.302;17.068;2023-02-28T07:31:50;41.70;;;18.20;;
77217;SDS011;66214;51.302;17.068;2023-02-28T07:34:21;35.70;;;15.40;;
77217;SDS011;66214;51.302;17.068;2023-02-28T07:36:53;25.70;;;13.30;;
77217;SDS011;66214;51.302;17.068;2023-02-28T07:39:22;27.20;;;13.60;;
77217;SDS011;66214;51.302;17.068;2023-02-28T07:41:50;26.60;;;12.90;;
77217;SDS011;66214;51.302;17.068;2023-02-28T07:44:17;33.30;;;14.50;;
77217;SDS011;66214;51.302;17.068;2023-02-28T07:46:46;34.60;;;14.20;;
77217;SDS011;66214;51.302;17.068;2023-02-28T07:49:14;30.50;;;16.00;;
77217;SDS011;66214;51.302;17.068;2023-02-28T07:51:42;32.70;;;14.60;;
77217;SDS011;66214;51.302;17.068;2023-02-28T07:54:11;34.70;;;14.70;;
77217;SDS011;66214;51.302;17.068;2023-02-28T07:56:39;36.80;;;16.00;;
77217;SDS011;66214;51.302;17.068;2023-02-28T07:59:07;30.40;;;13.10;;
77217;SDS011;66214;51.302;17.068;2023-02-28T08:01:35;28.30;;;12.80;;
77217;SDS011;66214;51.302;17.068;2023-02-28T08:04:03;34.60;;;16.30;;
77217;SDS011;66214;51.302;17.068;2023-02-28T08:06:31;24.90;;;11.90;;
77217;SDS011;66214;51.302;17.068;2023-02-28T08:08:59;31.10;;;14.20;;
77217;SDS011;66214;51.302;17.068;2023-02-28T08:11:27;28.90;;;13.40;;
77217;SDS011;66214;51.302;17.068;2023-02-28T08:13:55;30.80;;;13.70;;
77217;SDS011;66214;51.302;17.068;2023-02-28T08:16:23;28.20;;;12.00;;
77217;SDS011;66214;51.302;17.068;2023-02-28T08:18:52;33.70;;;14.20;;
77217;SDS011;66214;51.302;17.068;2023-02-28T08:21:21;49.50;;;22.40;;
77217;SDS011;66214;51.302;17.068;2023-02-28T08:23:50;54.70;;;23.40;;
77217;SDS011;66214;51.302;17.068;2023-02-28T08:26:19;56.30;;;25.10;;
77217;SDS011;66214;51.302;17.068;2023-02-28T08:28:47;40.00;;;19.70;;
77217;SDS011;66214;51.302;17.068;2023-02-28T08:31:16;28.20;;;13.30;;
77217;SDS011;66214;51.302;17.068;2023-02-28T08:33:45;18.80;;;8.30;;
77217;SDS011;66214;51.302;17.068;2023-02-28T08:36:16;15.50;;;8.40;;
77217;SDS011;66214;51.302;17.068;2023-02-28T08:38:45;19.30;;;8.80;;
77217;SDS011;66214;51.302;17.068;2023-02-28T08:41:13;17.70;;;7.50;;
77217;SDS011;66214;51.302;17.068;2023-02-28T08:43:41;17.50;;;8.10;;
77217;SDS011;66214;51.302;17.068;2023-02-28T08:46:12;21.10;;;9.10;;
77217;SDS011;66214;51.302;17.068;2023-02-28T08:48:41;19.30;;;8.50;;
77217;SDS011;66214;51.302;17.068;2023-02-28T08:54:43;9.90;;;3.80;;
77217;SDS011;66214;51.302;17.068;2023-02-28T08:57:11;8.90;;;3.80;;
77217;SDS011;66214;51.302;17.068;2023-02-28T08:59:39;10.50;;;4.70;;
77217;SDS011;66214;51.302;17.068;2023-02-28T09:02:09;9.60;;;3.10;;
77217;SDS011;66214;51.302;17.068;2023-02-28T09:04:40;9.60;;;3.60;;
77217;SDS011;66214;51.302;17.068;2023-02-28T09:07:09;10.80;;;4.30;;
77217;SDS011;66214;51.302;17.068;2023-02-28T09:09:37;10.80;;;4.80;;
77217;SDS011;66214;51.302;17.068;2023-02-28T09:12:22;13.20;;;6.20;;
77217;SDS011;66214;51.302;17.068;2023-02-28T09:14:52;11.50;;;3.70;;
77217;SDS011;66214;51.302;17.068;2023-02-28T09:17:20;10.70;;;4.40;;
77217;SDS011;66214;51.302;17.068;2023-02-28T09:19:48;11.80;;;3.70;;
77217;SDS011;66214;51.302;17.068;2023-02-28T09:22:17;10.30;;;4.50;;
77217;SDS011;66214;51.302;17.068;2023-02-28T09:24:45;13.00;;;4.70;;
77217;SDS011;66214;51.302;17.068;2023-02-28T09:27:13;12.00;;;4.40;;
77217;SDS011;66214;51.302;17.068;2023-02-28T09:29:41;9.70;;;3.90;;
77217;SDS011;66214;51.302;17.068;2023-02-28T09:36:29;8.90;;;3.90;;
77217;SDS011;66214;51.302;17.068;2023-02-28T09:38:57;11.20;;;4.30;;
77217;SDS011;66214;51.302;17.068;2023-02-28T09:41:26;12.80;;;4.60;;
77217;SDS011;66214;51.302;17.068;2023-02-28T09:44:04;9.60;;;4.60;;
77217;SDS011;66214;51.302;17.068;2023-02-28T09:49:14;14.00;;;5.60;;
77217;SDS011;66214;51.302;17.068;2023-02-28T09:52:03;20.20;;;5.80;;
77217;SDS011;66214;51.302;17.068;2023-02-28T09:54:37;16.90;;;5.70;;
77217;SDS011;66214;51.302;17.068;2023-02-28T10:00:03;13.30;;;5.50;;
77217;SDS011;66214;51.302;17.068;2023-02-28T10:06:11;10.60;;;4.70;;
77217;SDS011;66214;51.302;17.068;2023-02-28T10:09:01;13.10;;;5.90;;
77217;SDS011;66214;51.302;17.068;2023-02-28T10:11:33;12.20;;;5.80;;
77217;SDS011;66214;51.302;17.068;2023-02-28T10:14:13;13.00;;;6.30;;
77217;SDS011;66214;51.302;17.068;2023-02-28T10:16:47;12.20;;;5.80;;
77217;SDS011;66214;51.302;17.068;2023-02-28T10:19:23;15.00;;;5.70;;
77217;SDS011;66214;51.302;17.068;2023-02-28T10:25:19;11.90;;;5.60;;
77217;SDS011;66214;51.302;17.068;2023-02-28T10:27:50;11.20;;;5.40;;
77217;SDS011;66214;51.302;17.068;2023-02-28T10:30:21;11.70;;;5.70;;
77217;SDS011;66214;51.302;17.068;2023-02-28T10:32:50;11.40;;;4.70;;
77217;SDS011;66214;51.302;17.068;2023-02-28T10:37:50;9.70;;;4.00;;
77217;SDS011;66214;51.302;17.068;2023-02-28T10:46:01;10.40;;;5.20;;
77217;SDS011;66214;51.302;17.068;2023-02-28T10:51:04;10.00;;;4.70;;
77217;SDS011;66214;51.302;17.068;2023-02-28T10:53:38;12.10;;;5.70;;
77217;SDS011;66214;51.302;17.068;2023-02-28T10:56:32;9.70;;;4.90;;
77217;SDS011;66214;51.302;17.068;2023-02-28T10:59:01;11.40;;;4.70;;
77217;SDS011;66214;51.302;17.068;2023-02-28T11:07:02;13.90;;;7.10;;
77217;SDS011;66214;51.302;17.068;2023-02-28T11:09:40;14.00;;;6.70;;
77217;SDS011;66214;51.302;17.068;2023-02-28T11:12:20;12.30;;;6.80;;
77217;SDS011;66214;51.302;17.068;2023-02-28T11:17:55;12.00;;;6.80;;
77217;SDS011;66214;51.302;17.068;2023-02-28T11:20:28;10.90;;;6.00;;
77217;SDS011;66214;51.302;17.068;2023-02-28T11:23:01;13.80;;;7.00;;
77217;SDS011;66214;51.302;17.068;2023-02-28T11:25:37;15.30;;;6.20;;
77217;SDS011;66214;51.302;17.068;2023-02-28T11:28:24;10.60;;;6.20;;
77217;SDS011;66214;51.302;17.068;2023-02-28T11:31:17;12.10;;;6.40;;
77217;SDS011;66214;51.302;17.068;2023-02-28T11:33:57;13.40;;;6.60;;
77217;SDS011;66214;51.302;17.068;2023-02-28T11:36:29;14.70;;;7.50;;
77217;SDS011;66214;51.302;17.068;2023-02-28T11:39:00;16.40;;;7.10;;
77217;SDS011;66214;51.302;17.068;2023-02-28T11:52:51;14.60;;;6.50;;
77217;SDS011;66214;51.302;17.068;2023-02-28T11:55:44;13.20;;;5.90;;
77217;SDS011;66214;51.302;17.068;2023-02-28T11:58:27;13.70;;;6.90;;
77217;SDS011;66214;51.302;17.068;2023-02-28T12:07:31;14.70;;;7.30;;
77217;SDS011;66214;51.302;17.068;2023-02-28T12:13:29;14.30;;;8.00;;
77217;SDS011;66214;51.302;17.068;2023-02-28T12:16:13;13.80;;;8.10;;
77217;SDS011;66214;51.302;17.068;2023-02-28T12:24:39;13.30;;;8.20;;
77217;SDS011;66214;51.302;17.068;2023-02-28T12:27:13;15.50;;;8.20;;
77217;SDS011;66214;51.302;17.068;2023-02-28T12:35:11;14.90;;;7.90;;
77217;SDS011;66214;51.302;17.068;2023-02-28T12:37:51;13.50;;;7.90;;
77217;SDS011;66214;51.302;17.068;2023-02-28T12:40:28;14.90;;;7.70;;
77217;SDS011;66214;51.302;17.068;2023-02-28T12:43:08;12.80;;;7.20;;
77217;SDS011;66214;51.302;17.068;2023-02-28T12:45:50;12.70;;;7.60;;
77217;SDS011;66214;51.302;17.068;2023-02-28T12:48:48;13.90;;;7.90;;
77217;SDS011;66214;51.302;17.068;2023-02-28T12:51:18;13.10;;;7.90;;
77217;SDS011;66214;51.302;17.068;2023-02-28T12:54:26;12.90;;;7.10;;
77217;SDS011;66214;51.302;17.068;2023-02-28T12:57:15;13.80;;;7.50;;
77217;SDS011;66214;51.302;17.068;2023-02-28T13:00:10;14.00;;;7.40;;
77217;SDS011;66214;51.302;17.068;2023-02-28T13:05:39;11.50;;;7.50;;
77217;SDS011;66214;51.302;17.068;2023-02-28T13:13:58;12.40;;;7.40;;
77217;SDS011;66214;51.302;17.068;2023-02-28T13:16:28;11.50;;;6.60;;
77217;SDS011;66214;51.302;17.068;2023-02-28T13:19:09;12.00;;;7.30;;
77217;SDS011;66214;51.302;17.068;2023-02-28T13:21:43;11.90;;;6.60;;
77217;SDS011;66214;51.302;17.068;2023-02-28T13:27:40;11.60;;;6.20;;
77217;SDS011;66214;51.302;17.068;2023-02-28T13:38:56;13.20;;;6.20;;
77217;SDS011;66214;51.302;17.068;2023-02-28T13:44:11;11.70;;;5.90;;
77217;SDS011;66214;51.302;17.068;2023-02-28T14:00:57;10.70;;;5.20;;
77217;SDS011;66214;51.302;17.068;2023-02-28T14:06:32;11.60;;;5.80;;
77217;SDS011;66214;51.302;17.068;2023-02-28T14:11:41;12.40;;;4.60;;
77217;SDS011;66214;51.302;17.068;2023-02-28T14:17:06;10.30;;;5.10;;
77217;SDS011;66214;51.302;17.068;2023-02-28T14:19:37;9.60;;;4.30;;
77217;SDS011;66214;51.302;17.068;2023-02-28T14:36:53;16.70;;;9.30;;
77217;SDS011;66214;51.302;17.068;2023-02-28T14:39:25;10.90;;;5.60;;
77217;SDS011;66214;51.302;17.068;2023-02-28T14:41:54;12.10;;;6.20;;
77217;SDS011;66214;51.302;17.068;2023-02-28T14:44:26;13.30;;;6.50;;
77217;SDS011;66214;51.302;17.068;2023-02-28T14:46:57;19.80;;;8.30;;
77217;SDS011;66214;51.302;17.068;2023-02-28T14:49:44;11.80;;;6.00;;
77217;SDS011;66214;51.302;17.068;2023-02-28T14:52:24;13.60;;;6.00;;
77217;SDS011;66214;51.302;17.068;2023-02-28T14:55:04;14.50;;;5.90;;
77217;SDS011;66214;51.302;17.068;2023-02-28T14:57:41;17.50;;;7.30;;
77217;SDS011;66214;51.302;17.068;2023-02-28T15:03:00;12.10;;;5.60;;
77217;SDS011;66214;51.302;17.068;2023-02-28T15:05:31;12.40;;;5.40;;
77217;SDS011;66214;51.302;17.068;2023-02-28T15:08:14;15.10;;;6.90;;
77217;SDS011;66214;51.302;17.068;2023-02-28T15:10:49;14.80;;;7.00;;
77217;SDS011;66214;51.302;17.068;2023-02-28T15:17:21;14.00;;;7.30;;
77217;SDS011;66214;51.302;17.068;2023-02-28T15:19:52;13.80;;;7.10;;
77217;SDS011;66214;51.302;17.068;2023-02-28T15:22:28;13.60;;;6.50;;
77217;SDS011;66214;51.302;17.068;2023-02-28T15:25:02;12.00;;;6.10;;
77217;SDS011;66214;51.302;17.068;2023-02-28T15:27:33;14.20;;;6.70;;
77217;SDS011;66214;51.302;17.068;2023-02-28T15:30:22;10.80;;;5.60;;
77217;SDS011;66214;51.302;17.068;2023-02-28T15:33:20;12.10;;;5.80;;
77217;SDS011;66214;51.302;17.068;2023-02-28T15:35:51;13.50;;;5.90;;
77217;SDS011;66214;51.302;17.068;2023-02-28T15:38:25;15.50;;;7.20;;
77217;SDS011;66214;51.302;17.068;2023-02-28T15:40:57;16.60;;;8.40;;
77217;SDS011;66214;51.302;17.068;2023-02-28T15:43:36;17.60;;;8.00;;
77217;SDS011;66214;51.302;17.068;2023-02-28T15:46:09;20.80;;;10.30;;
77217;SDS011;66214;51.302;17.068;2023-02-28T15:48:54;22.70;;;10.40;;
77217;SDS011;66214;51.302;17.068;2023-02-28T15:51:41;21.30;;;10.30;;
77217;SDS011;66214;51.302;17.068;2023-02-28T15:54:21;27.00;;;12.50;;
77217;SDS011;66214;51.302;17.068;2023-02-28T15:56:54;13.90;;;6.30;;
77217;SDS011;66214;51.302;17.068;2023-02-28T15:59:29;18.20;;;8.20;;
77217;SDS011;66214;51.302;17.068;2023-02-28T16:02:19;16.90;;;8.70;;
77217;SDS011;66214;51.302;17.068;2023-02-28T16:07:29;17.70;;;8.80;;
77217;SDS011;66214;51.302;17.068;2023-02-28T16:09:57;18.80;;;8.60;;
77217;SDS011;66214;51.302;17.068;2023-02-28T16:12:32;18.40;;;8.80;;
77217;SDS011;66214;51.302;17.068;2023-02-28T16:15:07;19.20;;;9.00;;
77217;SDS011;66214;51.302;17.068;2023-02-28T16:17:38;18.30;;;9.50;;
77217;SDS011;66214;51.302;17.068;2023-02-28T16:20:19;18.00;;;9.50;;
77217;SDS011;66214;51.302;17.068;2023-02-28T16:22:53;21.20;;;8.50;;
77217;SDS011;66214;51.302;17.068;2023-02-28T16:25:33;23.50;;;9.80;;
77217;SDS011;66214;51.302;17.068;2023-02-28T16:28:28;22.60;;;9.60;;
77217;SDS011;66214;51.302;17.068;2023-02-28T16:31:03;23.60;;;10.30;;
77217;SDS011;66214;51.302;17.068;2023-02-28T16:33:34;20.90;;;9.70;;
77217;SDS011;66214;51.302;17.068;2023-02-28T16:36:03;23.90;;;12.30;;
77217;SDS011;66214;51.302;17.068;2023-02-28T16:38:31;24.40;;;10.50;;
77217;SDS011;66214;51.302;17.068;2023-02-28T16:41:01;29.70;;;11.80;;
77217;SDS011;66214;51.302;17.068;2023-02-28T16:43:30;29.10;;;13.10;;
77217;SDS011;66214;51.302;17.068;2023-02-28T16:45:58;26.90;;;13.10;;
77217;SDS011;66214;51.302;17.068;2023-02-28T16:48:27;25.70;;;11.70;;
77217;SDS011;66214;51.302;17.068;2023-02-28T16:50:55;30.10;;;12.40;;
77217;SDS011;66214;51.302;17.068;2023-02-28T16:53:23;27.50;;;12.40;;
77217;SDS011;66214;51.302;17.068;2023-02-28T16:55:52;25.10;;;11.50;;
77217;SDS011;66214;51.302;17.068;2023-02-28T16:58:20;25.00;;;12.50;;
77217;SDS011;66214;51.302;17.068;2023-02-28T17:00:51;34.80;;;15.70;;
77217;SDS011;66214;51.302;17.068;2023-02-28T17:03:26;30.60;;;13.60;;
77217;SDS011;66214;51.302;17.068;2023-02-28T17:05:54;31.10;;;14.10;;
77217;SDS011;66214;51.302;17.068;2023-02-28T17:08:23;30.80;;;13.80;;
77217;SDS011;66214;51.302;17.068;2023-02-28T17:10:52;27.70;;;13.10;;
77217;SDS011;66214;51.302;17.068;2023-02-28T17:13:21;30.20;;;13.40;;
77217;SDS011;66214;51.302;17.068;2023-02-28T17:15:49;34.50;;;14.50;;
77217;SDS011;66214;51.302;17.068;2023-02-28T17:18:19;36.50;;;15.10;;
77217;SDS011;66214;51.302;17.068;2023-02-28T17:20:49;31.90;;;13.50;;
77217;SDS011;66214;51.302;17.068;2023-02-28T17:23:18;29.50;;;13.00;;
77217;SDS011;66214;51.302;17.068;2023-02-28T17:25:47;28.10;;;13.10;;
77217;SDS011;66214;51.302;17.068;2023-02-28T17:28:21;39.40;;;17.60;;
77217;SDS011;66214;51.302;17.068;2023-02-28T17:30:49;43.80;;;18.90;;
77217;SDS011;66214;51.302;17.068;2023-02-28T17:33:18;48.70;;;20.10;;
77217;SDS011;66214;51.302;17.068;2023-02-28T17:35:46;53.40;;;21.80;;
77217;SDS011;66214;51.302;17.068;2023-02-28T17:38:19;68.50;;;28.50;;
77217;SDS011;66214;51.302;17.068;2023-02-28T17:40:50;92.80;;;36.60;;
77217;SDS011;66214;51.302;17.068;2023-02-28T17:43:18;100.80;;;40.10;;
77217;SDS011;66214;51.302;17.068;2023-02-28T17:45:46;119.20;;;46.20;;
77217;SDS011;66214;51.302;17.068;2023-02-28T17:48:14;134.90;;;54.90;;
77217;SDS011;66214;51.302;17.068;2023-02-28T17:50:42;131.80;;;52.00;;
77217;SDS011;66214;51.302;17.068;2023-02-28T17:53:11;114.10;;;46.50;;
77217;SDS011;66214;51.302;17.068;2023-02-28T17:55:39;68.50;;;27.30;;
77217;SDS011;66214;51.302;17.068;2023-02-28T17:58:10;60.90;;;28.00;;
77217;SDS011;66214;51.302;17.068;2023-02-28T18:00:40;70.50;;;25.90;;
77217;SDS011;66214;51.302;17.068;2023-02-28T18:03:08;72.80;;;29.00;;
77217;SDS011;66214;51.302;17.068;2023-02-28T18:05:38;69.70;;;26.30;;
77217;SDS011;66214;51.302;17.068;2023-02-28T18:08:10;62.50;;;27.80;;
77217;SDS011;66214;51.302;17.068;2023-02-28T18:10:41;73.30;;;27.50;;
77217;SDS011;66214;51.302;17.068;2023-02-28T18:13:10;65.30;;;24.70;;
77217;SDS011;66214;51.302;17.068;2023-02-28T18:15:40;74.60;;;27.00;;
77217;SDS011;66214;51.302;17.068;2023-02-28T18:18:09;82.80;;;28.80;;
77217;SDS011;66214;51.302;17.068;2023-02-28T18:20:41;68.10;;;27.90;;
77217;SDS011;66214;51.302;17.068;2023-02-28T18:23:14;76.10;;;27.30;;
77217;SDS011;66214;51.302;17.068;2023-02-28T18:25:51;73.00;;;28.10;;
77217;SDS011;66214;51.302;17.068;2023-02-28T18:28:18;81.80;;;30.50;;
77217;SDS011;66214;51.302;17.068;2023-02-28T18:30:47;70.30;;;27.20;;
77217;SDS011;66214;51.302;17.068;2023-02-28T18:33:16;77.40;;;29.50;;
77217;SDS011;66214;51.302;17.068;2023-02-28T18:35:44;73.30;;;27.80;;
77217;SDS011;66214;51.302;17.068;2023-02-28T18:38:16;74.60;;;27.10;;
77217;SDS011;66214;51.302;17.068;2023-02-28T18:40:55;67.30;;;25.10;;
77217;SDS011;66214;51.302;17.068;2023-02-28T18:43:28;69.10;;;26.90;;
77217;SDS011;66214;51.302;17.068;2023-02-28T18:46:03;68.20;;;24.90;;
77217;SDS011;66214;51.302;17.068;2023-02-28T18:48:33;84.00;;;29.20;;
77217;SDS011;66214;51.302;17.068;2023-02-28T18:51:09;66.60;;;26.50;;
77217;SDS011;66214;51.302;17.068;2023-02-28T18:53:39;56.80;;;22.70;;
77217;SDS011;66214;51.302;17.068;2023-02-28T18:56:11;48.40;;;19.10;;
77217;SDS011;66214;51.302;17.068;2023-02-28T19:02:07;89.40;;;31.60;;
77217;SDS011;66214;51.302;17.068;2023-02-28T19:04:40;105.20;;;33.50;;
77217;SDS011;66214;51.302;17.068;2023-02-28T19:07:09;116.10;;;38.90;;
77217;SDS011;66214;51.302;17.068;2023-02-28T19:12:44;105.40;;;38.60;;
77217;SDS011;66214;51.302;17.068;2023-02-28T19:15:14;104.80;;;38.80;;
77217;SDS011;66214;51.302;17.068;2023-02-28T19:17:43;63.80;;;27.70;;
77217;SDS011;66214;51.302;17.068;2023-02-28T19:20:13;55.50;;;22.00;;
77217;SDS011;66214;51.302;17.068;2023-02-28T19:22:41;45.70;;;19.20;;
77217;SDS011;66214;51.302;17.068;2023-02-28T19:25:10;49.60;;;19.50;;
77217;SDS011;66214;51.302;17.068;2023-02-28T19:27:38;46.20;;;18.30;;
77217;SDS011;66214;51.302;17.068;2023-02-28T19:30:07;37.40;;;16.10;;
77217;SDS011;66214;51.302;17.068;2023-02-28T19:32:36;43.00;;;17.80;;
77217;SDS011;66214;51.302;17.068;2023-02-28T19:35:04;36.10;;;16.30;;
77217;SDS011;66214;51.302;17.068;2023-02-28T19:37:36;49.00;;;19.90;;
77217;SDS011;66214;51.302;17.068;2023-02-28T19:40:07;44.00;;;18.20;;
77217;SDS011;66214;51.302;17.068;2023-02-28T19:42:37;36.50;;;15.70;;
77217;SDS011;66214;51.302;17.068;2023-02-28T19:45:05;49.40;;;20.40;;
77217;SDS011;66214;51.302;17.068;2023-02-28T19:47:36;53.90;;;19.80;;
77217;SDS011;66214;51.302;17.068;2023-02-28T19:50:07;45.60;;;22.00;;
77217;SDS011;66214;51.302;17.068;2023-02-28T19:52:35;51.30;;;20.20;;
77217;SDS011;66214;51.302;17.068;2023-02-28T19:55:04;44.80;;;20.10;;
77217;SDS011;66214;51.302;17.068;2023-02-28T19:57:33;58.50;;;23.60;;
77217;SDS011;66214;51.302;17.068;2023-02-28T20:00:01;50.70;;;19.60;;
77217;SDS011;66214;51.302;17.068;2023-02-28T20:02:29;49.10;;;20.00;;
77217;SDS011;66214;51.302;17.068;2023-02-28T20:04:57;50.40;;;20.60;;
77217;SDS011;66214;51.302;17.068;2023-02-28T20:07:26;45.50;;;19.10;;
77217;SDS011;66214;51.302;17.068;2023-02-28T20:09:55;39.80;;;17.00;;
77217;SDS011;66214;51.302;17.068;2023-02-28T20:12:23;43.70;;;19.10;;
77217;SDS011;66214;51.302;17.068;2023-02-28T20:14:53;57.40;;;20.50;;
77217;SDS011;66214;51.302;17.068;2023-02-28T20:17:24;78.60;;;24.60;;
77217;SDS011;66214;51.302;17.068;2023-02-28T20:19:52;78.50;;;26.90;;
77217;SDS011;66214;51.302;17.068;2023-02-28T20:22:20;92.70;;;27.20;;
77217;SDS011;66214;51.302;17.068;2023-02-28T20:24:48;121.60;;;34.70;;
77217;SDS011;66214;51.302;17.068;2023-02-28T20:27:16;105.50;;;36.00;;
77217;SDS011;66214;51.302;17.068;2023-02-28T20:29:44;119.90;;;38.10;;
77217;SDS011;66214;51.302;17.068;2023-02-28T20:32:12;92.80;;;32.10;;
77217;SDS011;66214;51.302;17.068;2023-02-28T20:34:40;79.60;;;28.00;;
77217;SDS011;66214;51.302;17.068;2023-02-28T20:37:08;49.00;;;21.40;;
77217;SDS011;66214;51.302;17.068;2023-02-28T20:39:36;45.10;;;17.60;;
77217;SDS011;66214;51.302;17.068;2023-02-28T20:42:04;42.00;;;15.40;;
77217;SDS011;66214;51.302;17.068;2023-02-28T20:44:32;39.60;;;15.50;;
77217;SDS011;66214;51.302;17.068;2023-02-28T20:47:00;40.10;;;15.70;;
77217;SDS011;66214;51.302;17.068;2023-02-28T20:49:28;43.10;;;18.30;;
77217;SDS011;66214;51.302;17.068;2023-02-28T20:51:56;43.80;;;17.50;;
77217;SDS011;66214;51.302;17.068;2023-02-28T20:54:24;44.40;;;16.60;;
77217;SDS011;66214;51.302;17.068;2023-02-28T20:56:52;34.80;;;15.20;;
77217;SDS011;66214;51.302;17.068;2023-02-28T20:59:21;42.50;;;16.70;;
77217;SDS011;66214;51.302;17.068;2023-02-28T21:01:49;44.70;;;20.00;;
77217;SDS011;66214;51.302;17.068;2023-02-28T21:04:18;52.80;;;21.20;;
77217;SDS011;66214;51.302;17.068;2023-02-28T21:06:46;65.00;;;25.90;;
77217;SDS011;66214;51.302;17.068;2023-02-28T21:09:14;84.70;;;34.30;;
77217;SDS011;66214;51.302;17.068;2023-02-28T21:11:42;78.10;;;29.90;;
77217;SDS011;66214;51.302;17.068;2023-02-28T21:14:20;66.60;;;26.40;;
77217;SDS011;66214;51.302;17.068;2023-02-28T21:16:49;67.30;;;24.30;;
77217;SDS011;66214;51.302;17.068;2023-02-28T21:19:17;67.70;;;23.50;;
77217;SDS011;66214;51.302;17.068;2023-02-28T21:21:45;62.60;;;25.10;;
77217;SDS011;66214;51.302;17.068;2023-02-28T21:24:17;49.90;;;20.00;;
77217;SDS011;66214;51.302;17.068;2023-02-28T21:26:46;61.40;;;24.20;;
77217;SDS011;66214;51.302;17.068;2023-02-28T21:29:15;61.90;;;23.60;;
77217;SDS011;66214;51.302;17.068;2023-02-28T21:31:43;76.70;;;28.30;;
77217;SDS011;66214;51.302;17.068;2023-02-28T21:34:11;92.10;;;33.40;;
77217;SDS011;66214;51.302;17.068;2023-02-28T21:36:42;122.10;;;41.00;;
77217;SDS011;66214;51.302;17.068;2023-02-28T21:39:23;137.50;;;44.20;;
77217;SDS011;66214;51.302;17.068;2023-02-28T21:41:53;144.00;;;43.30;;
77217;SDS011;66214;51.302;17.068;2023-02-28T21:44:21;154.80;;;51.00;;
77217;SDS011;66214;51.302;17.068;2023-02-28T21:46:50;147.20;;;46.80;;
77217;SDS011;66214;51.302;17.068;2023-02-28T21:49:21;147.30;;;45.20;;
77217;SDS011;66214;51.302;17.068;2023-02-28T21:51:49;119.60;;;41.00;;
77217;SDS011;66214;51.302;17.068;2023-02-28T21:54:17;114.70;;;40.80;;
77217;SDS011;66214;51.302;17.068;2023-02-28T21:56:45;90.50;;;34.50;;
77217;SDS011;66214;51.302;17.068;2023-02-28T21:59:13;73.40;;;27.60;;
77217;SDS011;66214;51.302;17.068;2023-02-28T22:01:42;68.40;;;23.70;;
77217;SDS011;66214;51.302;17.068;2023-02-28T22:04:13;73.80;;;25.20;;
77217;SDS011;66214;51.302;17.068;2023-02-28T22:06:50;62.90;;;22.20;;
77217;SDS011;66214;51.302;17.068;2023-02-28T22:09:20;54.10;;;19.60;;
77217;SDS011;66214;51.302;17.068;2023-02-28T22:11:49;54.00;;;18.60;;
77217;SDS011;66214;51.302;17.068;2023-02-28T22:14:17;49.30;;;17.20;;
77217;SDS011;66214;51.302;17.068;2023-02-28T22:16:45;74.20;;;25.20;;
77217;SDS011;66214;51.302;17.068;2023-02-28T22:19:14;77.50;;;24.40;;
77217;SDS011;66214;51.302;17.068;2023-02-28T22:21:42;85.90;;;28.70;;
77217;SDS011;66214;51.302;17.068;2023-02-28T22:24:11;90.60;;;30.20;;
77217;SDS011;66214;51.302;17.068;2023-02-28T22:26:39;113.60;;;32.60;;
77217;SDS011;66214;51.302;17.068;2023-02-28T22:29:07;105.30;;;32.50;;
77217;SDS011;66214;51.302;17.068;2023-02-28T22:31:35;90.40;;;30.60;;
77217;SDS011;66214;51.302;17.068;2023-02-28T22:34:06;90.50;;;30.00;;
77217;SDS011;66214;51.302;17.068;2023-02-28T22:36:36;72.40;;;27.50;;
77217;SDS011;66214;51.302;17.068;2023-02-28T22:39:08;71.90;;;27.00;;
77217;SDS011;66214;51.302;17.068;2023-02-28T22:41:37;79.80;;;26.50;;
77217;SDS011;66214;51.302;17.068;2023-02-28T22:44:05;76.20;;;26.40;;
77217;SDS011;66214;51.302;17.068;2023-02-28T22:46:34;73.90;;;24.90;;
77217;SDS011;66214;51.302;17.068;2023-02-28T22:49:03;85.70;;;29.60;;
77217;SDS011;66214;51.302;17.068;2023-02-28T22:51:32;109.00;;;34.30;;
77217;SDS011;66214;51.302;17.068;2023-02-28T22:54:01;133.40;;;42.00;;
77217;SDS011;66214;51.302;17.068;2023-02-28T22:56:30;157.80;;;51.70;;
77217;SDS011;66214;51.302;17.068;2023-02-28T22:58:59;171.30;;;59.30;;
77217;SDS011;66214;51.302;17.068;2023-02-28T23:01:30;215.60;;;72.60;;
77217;SDS011;66214;51.302;17.068;2023-02-28T23:04:00;230.70;;;81.20;;
77217;SDS011;66214;51.302;17.068;2023-02-28T23:06:34;223.40;;;80.10;;
77217;SDS011;66214;51.302;17.068;2023-02-28T23:09:15;220.80;;;78.10;;
77217;SDS011;66214;51.302;17.068;2023-02-28T23:11:50;224.00;;;79.10;;
77217;SDS011;66214;51.302;17.068;2023-02-28T23:14:19;198.70;;;75.20;;
77217;SDS011;66214;51.302;17.068;2023-02-28T23:16:52;168.60;;;66.20;;
77217;SDS011;66214;51.302;17.068;2023-02-28T23:19:29;142.60;;;52.90;;
77217;SDS011;66214;51.302;17.068;2023-02-28T23:22:00;117.10;;;43.90;;
77217;SDS011;66214;51.302;17.068;2023-02-28T23:24:31;115.20;;;39.70;;
77217;SDS011;66214;51.302;17.068;2023-02-28T23:27:02;127.70;;;46.10;;
77217;SDS011;66214;51.302;17.068;2023-02-28T23:29:32;127.80;;;44.90;;
77217;SDS011;66214;51.302;17.068;2023-02-28T23:32:00;91.40;;;31.10;;
77217;SDS011;66214;51.302;17.068;2023-02-28T23:34:29;117.40;;;42.70;;
77217;SDS011;66214;51.302;17.068;2023-02-28T23:36:59;127.40;;;40.00;;
77217;SDS011;66214;51.302;17.068;2023-02-28T23:39:28;118.90;;;41.40;;
77217;SDS011;66214;51.302;17.068;2023-02-28T23:41:58;132.70;;;44.00;;
77217;SDS011;66214;51.302;17.068;2023-02-28T23:44:28;114.10;;;41.00;;
77217;SDS011;66214;51.302;17.068;2023-02-28T23:46:56;118.50;;;39.50;;
